sensor_id;sensor_type;location;lat;lon;timestamp;P1;durP1;ratioP1;P2;durP2;ratioP2
62535;SDS011;63050;47.514;18.920;2023-04-25T00:01:10;2.60;;;1.60;;
62535;SDS011;63050;47.514;18.920;2023-04-25T00:06:13;2.40;;;1.50;;
62535;SDS011;63050;47.514;18.920;2023-04-25T00:11:15;2.50;;;1.90;;
62535;SDS011;63050;47.514;18.920;2023-04-25T00:16:17;3.30;;;1.70;;
62535;SDS011;63050;47.514;18.920;2023-04-25T00:21:19;2.80;;;1.50;;
62535;SDS011;63050;47.514;18.920;2023-04-25T00:26:21;3.00;;;1.70;;
62535;SDS011;63050;47.514;18.920;2023-04-25T00:31:23;3.20;;;2.00;;
62535;SDS011;63050;47.514;18.920;2023-04-25T00:36:24;2.20;;;1.60;;
62535;SDS011;63050;47.514;18.920;2023-04-25T00:41:25;3.70;;;2.30;;
62535;SDS011;63050;47.514;18.920;2023-04-25T00:46:27;3.20;;;2.20;;
62535;SDS011;63050;47.514;18.920;2023-04-25T00:51:30;2.70;;;2.30;;
62535;SDS011;63050;47.514;18.920;2023-04-25T00:56:32;2.30;;;2.10;;
62535;SDS011;63050;47.514;18.920;2023-04-25T01:01:34;2.70;;;2.20;;
62535;SDS011;63050;47.514;18.920;2023-04-25T01:06:36;3.60;;;2.40;;
62535;SDS011;63050;47.514;18.920;2023-04-25T01:11:38;3.20;;;2.50;;
62535;SDS011;63050;47.514;18.920;2023-04-25T01:16:40;3.50;;;2.60;;
62535;SDS011;63050;47.514;18.920;2023-04-25T01:21:43;2.80;;;2.40;;
62535;SDS011;63050;47.514;18.920;2023-04-25T01:26:45;4.60;;;2.60;;
62535;SDS011;63050;47.514;18.920;2023-04-25T01:31:53;3.30;;;2.80;;
62535;SDS011;63050;47.514;18.920;2023-04-25T01:36:55;3.30;;;2.20;;
62535;SDS011;63050;47.514;18.920;2023-04-25T01:41:56;4.10;;;2.30;;
62535;SDS011;63050;47.514;18.920;2023-04-25T01:46:58;2.90;;;2.30;;
62535;SDS011;63050;47.514;18.920;2023-04-25T01:52:00;3.40;;;2.50;;
62535;SDS011;63050;47.514;18.920;2023-04-25T01:57:01;4.30;;;2.50;;
62535;SDS011;63050;47.514;18.920;2023-04-25T02:02:04;4.10;;;2.60;;
62535;SDS011;63050;47.514;18.920;2023-04-25T02:07:05;2.90;;;2.20;;
62535;SDS011;63050;47.514;18.920;2023-04-25T02:12:17;2.60;;;2.00;;
62535;SDS011;63050;47.514;18.920;2023-04-25T02:17:44;2.70;;;2.20;;
62535;SDS011;63050;47.514;18.920;2023-04-25T02:22:46;3.70;;;3.00;;
62535;SDS011;63050;47.514;18.920;2023-04-25T02:27:48;3.40;;;2.60;;
62535;SDS011;63050;47.514;18.920;2023-04-25T02:32:50;2.80;;;2.40;;
62535;SDS011;63050;47.514;18.920;2023-04-25T02:37:52;3.00;;;2.30;;
62535;SDS011;63050;47.514;18.920;2023-04-25T02:42:54;3.10;;;2.60;;
62535;SDS011;63050;47.514;18.920;2023-04-25T02:47:56;3.00;;;2.50;;
62535;SDS011;63050;47.514;18.920;2023-04-25T02:52:58;4.90;;;3.50;;
62535;SDS011;63050;47.514;18.920;2023-04-25T02:58:04;3.40;;;2.80;;
62535;SDS011;63050;47.514;18.920;2023-04-25T03:03:15;3.70;;;2.80;;
62535;SDS011;63050;47.514;18.920;2023-04-25T03:08:18;3.30;;;2.60;;
62535;SDS011;63050;47.514;18.920;2023-04-25T03:13:20;3.50;;;2.80;;
62535;SDS011;63050;47.514;18.920;2023-04-25T03:18:21;4.90;;;2.70;;
62535;SDS011;63050;47.514;18.920;2023-04-25T03:23:22;3.60;;;2.60;;
62535;SDS011;63050;47.514;18.920;2023-04-25T03:28:24;3.70;;;2.50;;
62535;SDS011;63050;47.514;18.920;2023-04-25T03:33:27;3.30;;;2.50;;
62535;SDS011;63050;47.514;18.920;2023-04-25T03:38:29;3.20;;;2.70;;
62535;SDS011;63050;47.514;18.920;2023-04-25T03:43:32;3.20;;;2.90;;
62535;SDS011;63050;47.514;18.920;2023-04-25T03:48:37;4.30;;;3.70;;
62535;SDS011;63050;47.514;18.920;2023-04-25T03:53:39;17.70;;;3.40;;
62535;SDS011;63050;47.514;18.920;2023-04-25T03:58:49;3.10;;;2.70;;
62535;SDS011;63050;47.514;18.920;2023-04-25T04:03:53;4.10;;;2.90;;
62535;SDS011;63050;47.514;18.920;2023-04-25T04:08:55;4.30;;;2.90;;
62535;SDS011;63050;47.514;18.920;2023-04-25T04:13:58;2.90;;;2.60;;
62535;SDS011;63050;47.514;18.920;2023-04-25T04:18:59;4.20;;;2.70;;
62535;SDS011;63050;47.514;18.920;2023-04-25T04:24:02;3.20;;;2.90;;
62535;SDS011;63050;47.514;18.920;2023-04-25T04:29:08;4.00;;;2.80;;
62535;SDS011;63050;47.514;18.920;2023-04-25T04:34:30;4.70;;;3.00;;
62535;SDS011;63050;47.514;18.920;2023-04-25T04:39:32;3.20;;;2.80;;
62535;SDS011;63050;47.514;18.920;2023-04-25T04:44:54;3.30;;;3.00;;
62535;SDS011;63050;47.514;18.920;2023-04-25T04:50:02;3.60;;;2.70;;
62535;SDS011;63050;47.514;18.920;2023-04-25T04:55:26;2.90;;;2.60;;
62535;SDS011;63050;47.514;18.920;2023-04-25T05:01:02;3.60;;;2.90;;
62535;SDS011;63050;47.514;18.920;2023-04-25T05:06:19;3.20;;;2.90;;
62535;SDS011;63050;47.514;18.920;2023-04-25T05:11:46;2.80;;;2.50;;
62535;SDS011;63050;47.514;18.920;2023-04-25T05:17:24;4.10;;;3.00;;
62535;SDS011;63050;47.514;18.920;2023-04-25T05:22:35;2.90;;;2.60;;
62535;SDS011;63050;47.514;18.920;2023-04-25T05:28:02;4.70;;;3.00;;
62535;SDS011;63050;47.514;18.920;2023-04-25T05:33:18;3.80;;;3.00;;
62535;SDS011;63050;47.514;18.920;2023-04-25T05:38:20;3.80;;;2.90;;
62535;SDS011;63050;47.514;18.920;2023-04-25T05:43:41;3.60;;;3.00;;
62535;SDS011;63050;47.514;18.920;2023-04-25T05:48:57;4.30;;;3.20;;
62535;SDS011;63050;47.514;18.920;2023-04-25T05:54:12;3.30;;;2.70;;
62535;SDS011;63050;47.514;18.920;2023-04-25T05:59:14;3.10;;;2.80;;
62535;SDS011;63050;47.514;18.920;2023-04-25T06:04:16;4.70;;;3.30;;
62535;SDS011;63050;47.514;18.920;2023-04-25T06:09:17;3.50;;;2.90;;
62535;SDS011;63050;47.514;18.920;2023-04-25T06:14:19;3.40;;;3.10;;
62535;SDS011;63050;47.514;18.920;2023-04-25T06:19:22;3.70;;;3.10;;
62535;SDS011;63050;47.514;18.920;2023-04-25T06:24:25;4.80;;;3.30;;
62535;SDS011;63050;47.514;18.920;2023-04-25T06:29:27;4.50;;;3.60;;
62535;SDS011;63050;47.514;18.920;2023-04-25T06:34:29;6.30;;;4.10;;
62535;SDS011;63050;47.514;18.920;2023-04-25T06:39:31;3.20;;;2.70;;
62535;SDS011;63050;47.514;18.920;2023-04-25T06:44:33;4.40;;;4.00;;
62535;SDS011;63050;47.514;18.920;2023-04-25T06:49:35;4.10;;;3.20;;
62535;SDS011;63050;47.514;18.920;2023-04-25T06:54:38;3.50;;;3.00;;
62535;SDS011;63050;47.514;18.920;2023-04-25T06:59:50;3.80;;;3.40;;
62535;SDS011;63050;47.514;18.920;2023-04-25T07:04:52;4.40;;;3.90;;
62535;SDS011;63050;47.514;18.920;2023-04-25T07:09:54;3.80;;;3.40;;
62535;SDS011;63050;47.514;18.920;2023-04-25T07:14:56;4.70;;;3.50;;
62535;SDS011;63050;47.514;18.920;2023-04-25T07:19:58;5.00;;;3.60;;
62535;SDS011;63050;47.514;18.920;2023-04-25T07:25:01;3.20;;;2.90;;
62535;SDS011;63050;47.514;18.920;2023-04-25T07:30:05;4.20;;;3.30;;
62535;SDS011;63050;47.514;18.920;2023-04-25T07:35:07;3.80;;;3.20;;
62535;SDS011;63050;47.514;18.920;2023-04-25T07:40:10;4.10;;;3.30;;
62535;SDS011;63050;47.514;18.920;2023-04-25T07:50:18;3.30;;;3.00;;
62535;SDS011;63050;47.514;18.920;2023-04-25T07:55:21;4.90;;;3.40;;
62535;SDS011;63050;47.514;18.920;2023-04-25T08:00:42;3.60;;;3.10;;
62535;SDS011;63050;47.514;18.920;2023-04-25T08:06:00;5.00;;;3.20;;
62535;SDS011;63050;47.514;18.920;2023-04-25T08:11:04;3.80;;;3.50;;
62535;SDS011;63050;47.514;18.920;2023-04-25T08:16:06;3.20;;;2.90;;
62535;SDS011;63050;47.514;18.920;2023-04-25T08:21:09;3.70;;;3.30;;
62535;SDS011;63050;47.514;18.920;2023-04-25T08:26:12;3.80;;;2.70;;
62535;SDS011;63050;47.514;18.920;2023-04-25T08:31:16;3.70;;;3.30;;
62535;SDS011;63050;47.514;18.920;2023-04-25T08:36:25;3.60;;;3.10;;
62535;SDS011;63050;47.514;18.920;2023-04-25T08:41:29;3.40;;;3.00;;
62535;SDS011;63050;47.514;18.920;2023-04-25T08:46:30;3.50;;;3.10;;
62535;SDS011;63050;47.514;18.920;2023-04-25T08:52:02;3.70;;;3.20;;
62535;SDS011;63050;47.514;18.920;2023-04-25T08:57:06;4.20;;;3.30;;
62535;SDS011;63050;47.514;18.920;2023-04-25T09:02:09;3.20;;;2.90;;
62535;SDS011;63050;47.514;18.920;2023-04-25T09:07:15;3.40;;;3.10;;
62535;SDS011;63050;47.514;18.920;2023-04-25T09:12:20;3.30;;;3.00;;
62535;SDS011;63050;47.514;18.920;2023-04-25T09:17:21;3.60;;;2.80;;
62535;SDS011;63050;47.514;18.920;2023-04-25T09:22:27;3.00;;;2.70;;
62535;SDS011;63050;47.514;18.920;2023-04-25T09:27:29;3.00;;;2.50;;
62535;SDS011;63050;47.514;18.920;2023-04-25T09:32:37;4.40;;;2.60;;
62535;SDS011;63050;47.514;18.920;2023-04-25T09:37:39;3.10;;;2.30;;
62535;SDS011;63050;47.514;18.920;2023-04-25T09:43:24;3.70;;;2.60;;
62535;SDS011;63050;47.514;18.920;2023-04-25T09:48:26;3.00;;;2.70;;
62535;SDS011;63050;47.514;18.920;2023-04-25T09:53:29;2.50;;;2.20;;
62535;SDS011;63050;47.514;18.920;2023-04-25T09:58:44;2.30;;;1.90;;
62535;SDS011;63050;47.514;18.920;2023-04-25T10:03:46;2.10;;;1.60;;
62535;SDS011;63050;47.514;18.920;2023-04-25T10:09:20;3.10;;;1.80;;
62535;SDS011;63050;47.514;18.920;2023-04-25T10:14:22;2.00;;;1.80;;
62535;SDS011;63050;47.514;18.920;2023-04-25T10:19:25;2.50;;;1.70;;
62535;SDS011;63050;47.514;18.920;2023-04-25T10:24:27;1.80;;;1.50;;
62535;SDS011;63050;47.514;18.920;2023-04-25T10:29:28;1.40;;;1.10;;
62535;SDS011;63050;47.514;18.920;2023-04-25T10:34:40;1.70;;;1.20;;
62535;SDS011;63050;47.514;18.920;2023-04-25T10:39:42;1.30;;;0.80;;
62535;SDS011;63050;47.514;18.920;2023-04-25T10:45:00;1.90;;;0.70;;
62535;SDS011;63050;47.514;18.920;2023-04-25T10:50:07;1.80;;;0.80;;
62535;SDS011;63050;47.514;18.920;2023-04-25T10:55:09;1.80;;;0.80;;
62535;SDS011;63050;47.514;18.920;2023-04-25T11:00:11;1.10;;;0.60;;
62535;SDS011;63050;47.514;18.920;2023-04-25T11:05:31;1.30;;;0.60;;
62535;SDS011;63050;47.514;18.920;2023-04-25T11:10:33;1.40;;;0.80;;
62535;SDS011;63050;47.514;18.920;2023-04-25T11:15:36;0.90;;;0.60;;
62535;SDS011;63050;47.514;18.920;2023-04-25T11:20:38;0.70;;;0.50;;
62535;SDS011;63050;47.514;18.920;2023-04-25T11:25:39;1.30;;;0.60;;
62535;SDS011;63050;47.514;18.920;2023-04-25T11:30:47;1.10;;;0.50;;
62535;SDS011;63050;47.514;18.920;2023-04-25T11:35:49;0.70;;;0.50;;
62535;SDS011;63050;47.514;18.920;2023-04-25T11:40:52;1.40;;;0.60;;
62535;SDS011;63050;47.514;18.920;2023-04-25T11:45:55;0.50;;;0.40;;
62535;SDS011;63050;47.514;18.920;2023-04-25T11:50:56;1.20;;;0.60;;
62535;SDS011;63050;47.514;18.920;2023-04-25T11:55:58;0.90;;;0.60;;
62535;SDS011;63050;47.514;18.920;2023-04-25T12:01:00;1.20;;;0.90;;
62535;SDS011;63050;47.514;18.920;2023-04-25T12:06:03;1.50;;;1.00;;
62535;SDS011;63050;47.514;18.920;2023-04-25T12:11:06;1.10;;;0.70;;
62535;SDS011;63050;47.514;18.920;2023-04-25T12:16:21;2.10;;;1.00;;
62535;SDS011;63050;47.514;18.920;2023-04-25T12:21:23;1.10;;;0.70;;
62535;SDS011;63050;47.514;18.920;2023-04-25T12:26:25;2.40;;;0.90;;
62535;SDS011;63050;47.514;18.920;2023-04-25T12:31:28;1.30;;;0.90;;
62535;SDS011;63050;47.514;18.920;2023-04-25T12:36:31;1.10;;;0.70;;
62535;SDS011;63050;47.514;18.920;2023-04-25T12:41:33;1.20;;;0.90;;
62535;SDS011;63050;47.514;18.920;2023-04-25T12:46:36;1.20;;;0.90;;
62535;SDS011;63050;47.514;18.920;2023-04-25T12:51:38;1.30;;;0.80;;
62535;SDS011;63050;47.514;18.920;2023-04-25T12:56:40;1.40;;;0.80;;
62535;SDS011;63050;47.514;18.920;2023-04-25T13:01:42;2.50;;;1.00;;
62535;SDS011;63050;47.514;18.920;2023-04-25T13:06:46;1.60;;;1.00;;
62535;SDS011;63050;47.514;18.920;2023-04-25T13:11:47;1.80;;;1.10;;
62535;SDS011;63050;47.514;18.920;2023-04-25T13:16:49;1.50;;;0.90;;
62535;SDS011;63050;47.514;18.920;2023-04-25T13:21:50;2.60;;;1.10;;
62535;SDS011;63050;47.514;18.920;2023-04-25T13:26:52;1.70;;;1.10;;
62535;SDS011;63050;47.514;18.920;2023-04-25T13:31:53;3.40;;;1.20;;
62535;SDS011;63050;47.514;18.920;2023-04-25T13:36:55;2.00;;;1.00;;
62535;SDS011;63050;47.514;18.920;2023-04-25T13:41:56;2.40;;;1.00;;
62535;SDS011;63050;47.514;18.920;2023-04-25T13:46:58;4.10;;;1.20;;
62535;SDS011;63050;47.514;18.920;2023-04-25T13:52:01;2.10;;;1.20;;
62535;SDS011;63050;47.514;18.920;2023-04-25T13:57:02;2.20;;;1.20;;
62535;SDS011;63050;47.514;18.920;2023-04-25T14:02:03;1.90;;;1.10;;
62535;SDS011;63050;47.514;18.920;2023-04-25T14:07:05;2.20;;;1.30;;
62535;SDS011;63050;47.514;18.920;2023-04-25T14:12:06;1.90;;;1.10;;
62535;SDS011;63050;47.514;18.920;2023-04-25T14:17:08;3.90;;;1.20;;
62535;SDS011;63050;47.514;18.920;2023-04-25T14:22:10;1.70;;;1.10;;
62535;SDS011;63050;47.514;18.920;2023-04-25T14:27:11;1.90;;;1.10;;
62535;SDS011;63050;47.514;18.920;2023-04-25T14:32:12;1.70;;;1.20;;
62535;SDS011;63050;47.514;18.920;2023-04-25T14:37:14;1.90;;;1.00;;
62535;SDS011;63050;47.514;18.920;2023-04-25T14:42:16;3.30;;;1.50;;
62535;SDS011;63050;47.514;18.920;2023-04-25T14:47:36;4.80;;;1.30;;
62535;SDS011;63050;47.514;18.920;2023-04-25T14:52:39;3.20;;;1.50;;
62535;SDS011;63050;47.514;18.920;2023-04-25T14:57:40;3.20;;;1.20;;
62535;SDS011;63050;47.514;18.920;2023-04-25T15:02:42;2.50;;;1.50;;
62535;SDS011;63050;47.514;18.920;2023-04-25T15:07:43;2.20;;;1.30;;
62535;SDS011;63050;47.514;18.920;2023-04-25T15:12:44;2.50;;;1.30;;
62535;SDS011;63050;47.514;18.920;2023-04-25T15:17:46;2.20;;;1.20;;
62535;SDS011;63050;47.514;18.920;2023-04-25T15:22:48;2.20;;;1.30;;
62535;SDS011;63050;47.514;18.920;2023-04-25T15:27:49;2.20;;;1.30;;
62535;SDS011;63050;47.514;18.920;2023-04-25T15:32:52;2.40;;;1.10;;
62535;SDS011;63050;47.514;18.920;2023-04-25T15:37:54;3.40;;;1.80;;
62535;SDS011;63050;47.514;18.920;2023-04-25T15:42:55;3.70;;;2.20;;
62535;SDS011;63050;47.514;18.920;2023-04-25T15:47:57;2.50;;;2.00;;
62535;SDS011;63050;47.514;18.920;2023-04-25T15:52:59;3.00;;;2.00;;
62535;SDS011;63050;47.514;18.920;2023-04-25T15:58:00;2.30;;;1.40;;
62535;SDS011;63050;47.514;18.920;2023-04-25T16:03:01;2.10;;;1.70;;
62535;SDS011;63050;47.514;18.920;2023-04-25T16:08:03;2.70;;;1.80;;
62535;SDS011;63050;47.514;18.920;2023-04-25T16:13:05;2.70;;;1.70;;
62535;SDS011;63050;47.514;18.920;2023-04-25T16:18:07;2.10;;;1.60;;
62535;SDS011;63050;47.514;18.920;2023-04-25T16:23:10;3.60;;;1.70;;
62535;SDS011;63050;47.514;18.920;2023-04-25T16:28:11;3.00;;;1.70;;
62535;SDS011;63050;47.514;18.920;2023-04-25T16:33:13;4.00;;;1.90;;
62535;SDS011;63050;47.514;18.920;2023-04-25T16:38:14;4.40;;;2.00;;
62535;SDS011;63050;47.514;18.920;2023-04-25T16:43:16;4.40;;;2.20;;
62535;SDS011;63050;47.514;18.920;2023-04-25T16:48:20;3.30;;;1.90;;
62535;SDS011;63050;47.514;18.920;2023-04-25T16:53:25;2.50;;;2.10;;
62535;SDS011;63050;47.514;18.920;2023-04-25T16:58:26;3.00;;;2.00;;
62535;SDS011;63050;47.514;18.920;2023-04-25T17:03:28;3.20;;;1.90;;
62535;SDS011;63050;47.514;18.920;2023-04-25T17:08:31;5.20;;;2.50;;
62535;SDS011;63050;47.514;18.920;2023-04-25T17:13:32;2.50;;;2.30;;
62535;SDS011;63050;47.514;18.920;2023-04-25T17:18:34;3.60;;;2.50;;
62535;SDS011;63050;47.514;18.920;2023-04-25T17:23:35;3.20;;;2.40;;
62535;SDS011;63050;47.514;18.920;2023-04-25T17:28:37;4.30;;;2.80;;
62535;SDS011;63050;47.514;18.920;2023-04-25T17:33:41;2.90;;;2.20;;
62535;SDS011;63050;47.514;18.920;2023-04-25T17:38:42;3.80;;;2.60;;
62535;SDS011;63050;47.514;18.920;2023-04-25T17:43:45;2.40;;;2.20;;
62535;SDS011;63050;47.514;18.920;2023-04-25T17:48:47;5.50;;;2.80;;
62535;SDS011;63050;47.514;18.920;2023-04-25T17:53:50;3.00;;;2.50;;
62535;SDS011;63050;47.514;18.920;2023-04-25T17:58:52;5.80;;;3.30;;
62535;SDS011;63050;47.514;18.920;2023-04-25T18:03:53;3.70;;;2.80;;
62535;SDS011;63050;47.514;18.920;2023-04-25T18:08:55;3.70;;;3.40;;
62535;SDS011;63050;47.514;18.920;2023-04-25T18:13:59;5.70;;;2.90;;
62535;SDS011;63050;47.514;18.920;2023-04-25T18:19:01;4.30;;;3.00;;
62535;SDS011;63050;47.514;18.920;2023-04-25T18:24:05;3.80;;;3.20;;
62535;SDS011;63050;47.514;18.920;2023-04-25T18:29:10;4.60;;;2.70;;
62535;SDS011;63050;47.514;18.920;2023-04-25T18:34:12;3.40;;;2.90;;
62535;SDS011;63050;47.514;18.920;2023-04-25T18:39:16;4.00;;;3.40;;
62535;SDS011;63050;47.514;18.920;2023-04-25T18:44:17;4.30;;;2.80;;
62535;SDS011;63050;47.514;18.920;2023-04-25T18:49:20;3.50;;;2.70;;
62535;SDS011;63050;47.514;18.920;2023-04-25T18:54:22;2.70;;;2.30;;
62535;SDS011;63050;47.514;18.920;2023-04-25T18:59:23;2.70;;;2.20;;
62535;SDS011;63050;47.514;18.920;2023-04-25T19:04:24;3.00;;;2.20;;
62535;SDS011;63050;47.514;18.920;2023-04-25T19:09:27;3.00;;;2.10;;
62535;SDS011;63050;47.514;18.920;2023-04-25T19:14:30;4.10;;;2.40;;
62535;SDS011;63050;47.514;18.920;2023-04-25T19:19:32;2.80;;;2.20;;
62535;SDS011;63050;47.514;18.920;2023-04-25T19:24:34;4.80;;;2.80;;
62535;SDS011;63050;47.514;18.920;2023-04-25T19:29:36;2.90;;;2.00;;
62535;SDS011;63050;47.514;18.920;2023-04-25T19:34:38;4.50;;;2.50;;
62535;SDS011;63050;47.514;18.920;2023-04-25T19:39:41;3.90;;;2.50;;
62535;SDS011;63050;47.514;18.920;2023-04-25T19:44:43;2.60;;;2.10;;
62535;SDS011;63050;47.514;18.920;2023-04-25T19:49:45;3.10;;;2.10;;
62535;SDS011;63050;47.514;18.920;2023-04-25T19:54:47;3.40;;;2.20;;
62535;SDS011;63050;47.514;18.920;2023-04-25T19:59:49;3.10;;;2.70;;
62535;SDS011;63050;47.514;18.920;2023-04-25T20:04:51;4.40;;;2.20;;
62535;SDS011;63050;47.514;18.920;2023-04-25T20:09:54;2.70;;;2.30;;
62535;SDS011;63050;47.514;18.920;2023-04-25T20:14:56;3.50;;;2.40;;
62535;SDS011;63050;47.514;18.920;2023-04-25T20:19:58;2.90;;;2.30;;
62535;SDS011;63050;47.514;18.920;2023-04-25T20:24:59;3.10;;;2.60;;
62535;SDS011;63050;47.514;18.920;2023-04-25T20:30:05;3.80;;;2.50;;
62535;SDS011;63050;47.514;18.920;2023-04-25T20:35:07;2.80;;;2.40;;
62535;SDS011;63050;47.514;18.920;2023-04-25T20:40:09;3.30;;;2.50;;
62535;SDS011;63050;47.514;18.920;2023-04-25T20:45:11;3.80;;;2.60;;
62535;SDS011;63050;47.514;18.920;2023-04-25T20:50:13;2.80;;;2.00;;
62535;SDS011;63050;47.514;18.920;2023-04-25T20:55:14;3.90;;;2.60;;
62535;SDS011;63050;47.514;18.920;2023-04-25T21:00:15;3.20;;;2.20;;
62535;SDS011;63050;47.514;18.920;2023-04-25T21:05:18;4.60;;;3.30;;
62535;SDS011;63050;47.514;18.920;2023-04-25T21:10:22;3.20;;;2.60;;
62535;SDS011;63050;47.514;18.920;2023-04-25T21:15:24;4.20;;;2.50;;
62535;SDS011;63050;47.514;18.920;2023-04-25T21:20:26;3.10;;;2.60;;
62535;SDS011;63050;47.514;18.920;2023-04-25T21:25:28;4.10;;;2.80;;
62535;SDS011;63050;47.514;18.920;2023-04-25T21:30:30;3.10;;;2.70;;
62535;SDS011;63050;47.514;18.920;2023-04-25T21:35:32;3.60;;;2.80;;
62535;SDS011;63050;47.514;18.920;2023-04-25T21:40:33;3.30;;;2.80;;
62535;SDS011;63050;47.514;18.920;2023-04-25T21:45:35;4.00;;;3.40;;
62535;SDS011;63050;47.514;18.920;2023-04-25T21:50:37;3.60;;;3.30;;
62535;SDS011;63050;47.514;18.920;2023-04-25T21:55:39;3.10;;;2.70;;
62535;SDS011;63050;47.514;18.920;2023-04-25T22:00:41;4.00;;;3.10;;
62535;SDS011;63050;47.514;18.920;2023-04-25T22:05:44;4.80;;;3.60;;
62535;SDS011;63050;47.514;18.920;2023-04-25T22:10:45;4.50;;;3.80;;
62535;SDS011;63050;47.514;18.920;2023-04-25T22:15:47;4.10;;;3.40;;
62535;SDS011;63050;47.514;18.920;2023-04-25T22:20:49;3.70;;;3.20;;
62535;SDS011;63050;47.514;18.920;2023-04-25T22:25:51;5.30;;;3.60;;
62535;SDS011;63050;47.514;18.920;2023-04-25T22:30:53;3.70;;;3.30;;
62535;SDS011;63050;47.514;18.920;2023-04-25T22:35:55;5.50;;;4.00;;
62535;SDS011;63050;47.514;18.920;2023-04-25T22:40:56;3.80;;;3.50;;
62535;SDS011;63050;47.514;18.920;2023-04-25T22:45:58;4.20;;;3.80;;
62535;SDS011;63050;47.514;18.920;2023-04-25T22:51:03;4.50;;;3.50;;
62535;SDS011;63050;47.514;18.920;2023-04-25T22:56:06;5.70;;;3.80;;
62535;SDS011;63050;47.514;18.920;2023-04-25T23:01:11;5.10;;;3.80;;
62535;SDS011;63050;47.514;18.920;2023-04-25T23:06:13;3.80;;;3.30;;
62535;SDS011;63050;47.514;18.920;2023-04-25T23:11:15;4.10;;;3.70;;
62535;SDS011;63050;47.514;18.920;2023-04-25T23:16:17;4.00;;;3.60;;
62535;SDS011;63050;47.514;18.920;2023-04-25T23:21:19;4.50;;;4.10;;
62535;SDS011;63050;47.514;18.920;2023-04-25T23:26:21;5.20;;;4.50;;
62535;SDS011;63050;47.514;18.920;2023-04-25T23:31:22;5.10;;;3.60;;
62535;SDS011;63050;47.514;18.920;2023-04-25T23:36:24;4.50;;;4.10;;
62535;SDS011;63050;47.514;18.920;2023-04-25T23:41:26;5.40;;;4.00;;
62535;SDS011;63050;47.514;18.920;2023-04-25T23:46:28;4.50;;;3.80;;
62535;SDS011;63050;47.514;18.920;2023-04-25T23:51:31;5.60;;;4.90;;
62535;SDS011;63050;47.514;18.920;2023-04-25T23:56:33;4.80;;;4.20;;
